Terminal Aerodrome Forecast
Issued by NWS

Home | Current Version | Previous Version | Text Only | Print | Product List | Glossary On
Versions: 1 2 3 4 5 6 7 8 9 10 11 12 13 14 15 16
000
FTUS41 KBOX 222334
TAFFMH
TAF
KFMH 222334Z 2300/2324 23010KT P6SM BKN150 BKN250
     FM231000 21009KT 3SM BR BKN008
     FM231200 22009KT P6SM SCT008 OVC025
     FM231500 21013KT P6SM BKN060
     FM232300 22017KT P6SM BKN010=

USA.gov is the U.S. government's official web portal to all federal, state and local government web resources and services.